createdAt,value
2022-12-06T00:00:14.418Z,10.50
2022-12-06T00:01:42.773Z,9.73
2022-12-06T00:03:04.933Z,10.87
2022-12-06T00:04:26.986Z,9.33
2022-12-06T00:05:49.143Z,10.23
2022-12-06T00:07:13.067Z,9.93
2022-12-06T00:08:35.400Z,10.40
2022-12-06T00:09:57.798Z,11.47
2022-12-06T00:11:26.005Z,11.80
2022-12-06T00:12:48.012Z,9.83
2022-12-06T00:14:11.420Z,9.57
2022-12-06T00:15:36.439Z,10.93
2022-12-06T00:16:58.542Z,9.43
2022-12-06T00:18:20.636Z,9.67
2022-12-06T00:19:42.646Z,10.73
2022-12-06T00:21:13.676Z,10.30
2022-12-06T00:22:35.711Z,9.13
2022-12-06T00:24:06.403Z,10.00
2022-12-06T00:25:28.500Z,9.43
2022-12-06T00:26:51.086Z,8.77
2022-12-06T00:28:13.064Z,8.93
2022-12-06T00:29:35.163Z,8.43
2022-12-06T00:31:01.561Z,9.10
2022-12-06T00:32:23.635Z,9.23
2022-12-06T00:33:45.721Z,8.13
2022-12-06T00:35:07.741Z,8.80
2022-12-06T00:36:32.851Z,9.73
2022-12-06T00:37:54.876Z,9.63
2022-12-06T00:39:17.612Z,10.13
2022-12-06T00:40:39.604Z,9.83
2022-12-06T00:42:01.653Z,9.30
2022-12-06T00:43:23.674Z,10.80
2022-12-06T00:44:45.705Z,9.50
2022-12-06T00:46:10.523Z,10.30
2022-12-06T00:47:32.594Z,10.37
2022-12-06T00:48:55.903Z,10.80
2022-12-06T00:50:17.942Z,10.60
2022-12-06T00:51:40.154Z,12.00
2022-12-06T00:53:02.199Z,11.60
2022-12-06T00:54:24.300Z,12.60
2022-12-06T00:55:47.262Z,11.40
2022-12-06T00:57:09.482Z,11.50
2022-12-06T00:58:31.520Z,10.97
2022-12-06T00:59:53.565Z,10.70
2022-12-06T01:01:21.603Z,10.77
2022-12-06T01:02:43.891Z,10.67
2022-12-06T01:04:07.033Z,11.17
2022-12-06T01:05:29.103Z,10.40
2022-12-06T01:06:51.116Z,10.27
2022-12-06T01:08:14.421Z,11.03
2022-12-06T01:09:36.517Z,9.47
2022-12-06T01:10:58.610Z,11.00
2022-12-06T01:12:20.600Z,10.73
2022-12-06T01:13:43.473Z,10.90
2022-12-06T01:15:05.834Z,9.87
2022-12-06T01:16:30.746Z,10.47
2022-12-06T01:17:52.893Z,10.93
2022-12-06T01:19:14.962Z,9.80
2022-12-06T01:20:36.972Z,10.80
2022-12-06T01:21:58.993Z,9.43
2022-12-06T01:23:21.032Z,10.10
2022-12-06T01:24:43.182Z,9.97
2022-12-06T01:26:07.067Z,9.67
2022-12-06T01:27:29.140Z,9.40
2022-12-06T01:28:51.510Z,8.80
2022-12-06T01:30:13.708Z,8.20
2022-12-06T01:31:39.003Z,9.67
2022-12-06T01:33:01.430Z,9.30
2022-12-06T01:34:23.452Z,8.00
2022-12-06T01:35:45.556Z,9.23
2022-12-06T01:37:07.611Z,7.83
2022-12-06T01:38:29.788Z,7.67
2022-12-06T01:39:51.837Z,7.47
2022-12-06T01:41:13.862Z,7.90
2022-12-06T01:42:35.890Z,7.60
2022-12-06T01:43:58.007Z,9.10
2022-12-06T01:45:20.053Z,8.10
2022-12-06T01:46:44.817Z,8.80
2022-12-06T01:48:08.715Z,8.07
2022-12-06T01:49:35.469Z,8.50
2022-12-06T01:50:59.144Z,7.80
2022-12-06T01:52:28.202Z,7.50
2022-12-06T01:53:52.767Z,7.37
2022-12-06T01:55:16.280Z,6.77
2022-12-06T01:56:39.978Z,8.17
2022-12-06T01:58:09.558Z,8.23
2022-12-06T01:59:31.673Z,6.77
2022-12-06T02:00:54.146Z,7.60
2022-12-06T02:02:16.426Z,7.00
2022-12-06T02:03:38.846Z,7.80
2022-12-06T02:05:01.819Z,6.83
2022-12-06T02:06:24.075Z,5.87
2022-12-06T02:07:47.125Z,6.70
2022-12-06T02:09:11.119Z,6.10
2022-12-06T02:10:33.364Z,6.80
2022-12-06T02:11:55.432Z,5.90
2022-12-06T02:13:17.610Z,6.17
2022-12-06T02:14:40.465Z,6.77
2022-12-06T02:16:09.169Z,7.00
2022-12-06T02:17:42.865Z,6.00
2022-12-06T02:19:16.933Z,6.77
2022-12-06T02:20:51.667Z,6.03
2022-12-06T02:22:47.871Z,6.90
2022-12-06T02:24:34.178Z,6.07
2022-12-06T02:26:24.708Z,6.77
2022-12-06T02:28:08.514Z,6.00
2022-12-06T02:29:57.108Z,7.13
2022-12-06T02:31:42.188Z,6.87
2022-12-06T02:33:08.774Z,6.90
2022-12-06T02:34:48.553Z,6.63
2022-12-06T02:36:36.061Z,6.73
2022-12-06T02:38:20.914Z,7.77
2022-12-06T02:39:46.624Z,6.90
2022-12-06T02:41:13.253Z,7.90
2022-12-06T02:42:56.227Z,7.33
2022-12-06T02:44:27.785Z,7.20
2022-12-06T02:45:54.551Z,7.10
2022-12-06T02:47:19.786Z,7.13
2022-12-06T02:48:45.882Z,7.93
2022-12-06T02:50:13.894Z,7.73
2022-12-06T02:51:37.552Z,6.10
2022-12-06T02:53:02.860Z,7.43
2022-12-06T02:54:27.071Z,8.10
2022-12-06T02:55:51.277Z,7.60
2022-12-06T02:57:13.745Z,7.40
2022-12-06T02:58:37.265Z,8.50
2022-12-06T02:59:59.572Z,7.33
2022-12-06T03:01:28.994Z,7.83
2022-12-06T03:02:54.986Z,7.20
2022-12-06T03:05:05.810Z,7.73
2022-12-06T03:07:01.086Z,7.13
2022-12-06T03:08:50.716Z,6.97
2022-12-06T03:10:35.929Z,7.30
2022-12-06T03:12:07.737Z,6.67
2022-12-06T03:13:41.729Z,6.27
2022-12-06T03:15:15.617Z,6.30
2022-12-06T03:16:50.036Z,5.60
2022-12-06T03:18:24.137Z,5.77
2022-12-06T03:19:52.629Z,5.10
2022-12-06T03:21:27.643Z,5.47
2022-12-06T03:22:55.156Z,5.17
2022-12-06T03:24:17.733Z,5.03
2022-12-06T03:25:41.137Z,5.03
2022-12-06T03:27:23.253Z,5.03
2022-12-06T03:28:47.045Z,4.73
2022-12-06T03:30:11.897Z,5.10
2022-12-06T03:31:38.782Z,4.90
2022-12-06T03:33:02.672Z,5.00
2022-12-06T03:34:34.831Z,4.77
2022-12-06T03:35:58.463Z,4.60
2022-12-06T03:37:27.184Z,5.00
2022-12-06T03:38:57.088Z,4.50
2022-12-06T03:40:30.011Z,4.63
2022-12-06T03:41:56.313Z,5.27
2022-12-06T03:43:19.266Z,4.90
2022-12-06T03:44:41.496Z,4.70
2022-12-06T03:46:17.506Z,5.60
2022-12-06T03:47:45.793Z,5.20
2022-12-06T03:49:14.352Z,4.40
2022-12-06T03:50:42.909Z,5.57
2022-12-06T03:52:05.780Z,4.80
2022-12-06T03:53:27.932Z,6.13
2022-12-06T03:54:50.031Z,5.27
2022-12-06T03:56:12.039Z,5.30
2022-12-06T03:57:34.710Z,4.90
2022-12-06T03:58:56.931Z,4.87
2022-12-06T04:00:19.174Z,4.90
2022-12-06T04:01:41.276Z,5.80
2022-12-06T04:03:03.342Z,5.60
2022-12-06T04:04:25.457Z,5.00
2022-12-06T04:05:47.471Z,5.03
2022-12-06T04:07:11.365Z,5.90
2022-12-06T04:08:33.620Z,5.47
2022-12-06T04:10:04.916Z,5.83
2022-12-06T04:11:26.970Z,5.40
2022-12-06T04:13:01.030Z,4.97
2022-12-06T04:14:23.058Z,4.87
2022-12-06T04:15:45.189Z,5.53
2022-12-06T04:17:27.176Z,5.50
2022-12-06T04:18:49.168Z,5.30
2022-12-06T04:20:11.272Z,5.73
2022-12-06T04:21:33.307Z,5.97
2022-12-06T04:23:05.500Z,4.83
2022-12-06T04:24:27.504Z,5.27
2022-12-06T04:25:49.559Z,5.20
2022-12-06T04:27:30.506Z,5.00
2022-12-06T04:29:12.278Z,5.20
2022-12-06T04:30:52.806Z,4.23
2022-12-06T04:32:33.342Z,4.90
2022-12-06T04:34:14.264Z,4.63
2022-12-06T04:35:54.654Z,5.07
2022-12-06T04:37:36.320Z,5.33
2022-12-06T04:38:58.721Z,5.50
2022-12-06T04:40:20.716Z,4.90
2022-12-06T04:42:01.297Z,5.20
2022-12-06T04:43:41.854Z,5.03
2022-12-06T04:45:05.505Z,4.80
2022-12-06T04:46:27.653Z,4.10
2022-12-06T04:47:49.701Z,4.93
2022-12-06T04:49:11.752Z,4.93
2022-12-06T04:50:33.755Z,4.97
2022-12-06T04:51:56.052Z,5.10
2022-12-06T04:53:18.359Z,5.60
2022-12-06T04:54:40.818Z,4.70
2022-12-06T04:56:02.833Z,6.03
2022-12-06T04:57:24.910Z,5.70
2022-12-06T04:58:47.323Z,5.30
2022-12-06T05:00:09.990Z,5.20
2022-12-06T05:01:32.205Z,4.80
2022-12-06T05:02:54.220Z,6.53
2022-12-06T05:04:16.472Z,6.23
2022-12-06T05:05:39.193Z,5.43
2022-12-06T05:07:01.668Z,5.70
2022-12-06T05:08:23.772Z,5.80
2022-12-06T05:09:45.897Z,6.20
2022-12-06T05:11:07.972Z,5.77
2022-12-06T05:12:30.028Z,6.47
2022-12-06T05:13:52.066Z,6.17
2022-12-06T05:15:15.984Z,6.10
2022-12-06T05:16:38.270Z,6.30
2022-12-06T05:18:00.551Z,6.17
2022-12-06T05:19:22.635Z,6.43
2022-12-06T05:20:45.174Z,6.50
2022-12-06T05:22:07.193Z,6.80
2022-12-06T05:23:29.935Z,6.80
2022-12-06T05:24:51.977Z,6.90
2022-12-06T05:26:16.536Z,6.50
2022-12-06T05:27:38.838Z,5.53
2022-12-06T05:29:01.019Z,6.27
2022-12-06T05:30:23.054Z,6.47
2022-12-06T05:31:45.151Z,5.77
2022-12-06T05:33:07.234Z,6.53
2022-12-06T05:34:29.248Z,6.63
2022-12-06T05:35:51.576Z,5.80
2022-12-06T05:37:13.644Z,6.57
2022-12-06T05:38:36.293Z,6.20
2022-12-06T05:39:58.658Z,6.30
2022-12-06T05:41:22.792Z,5.80
2022-12-06T05:42:45.024Z,6.30
2022-12-06T05:44:07.297Z,6.23
2022-12-06T05:45:29.392Z,5.70
2022-12-06T05:46:51.498Z,6.27
2022-12-06T05:48:13.553Z,5.57
2022-12-06T05:49:35.746Z,6.33
2022-12-06T05:50:57.830Z,6.30
2022-12-06T05:52:19.998Z,5.57
2022-12-06T05:53:42.466Z,6.07
2022-12-06T05:55:04.811Z,5.70
2022-12-06T05:56:26.952Z,5.40
2022-12-06T05:57:49.845Z,6.20
2022-12-06T05:59:12.068Z,6.97
2022-12-06T06:00:34.521Z,5.23
2022-12-06T06:01:56.674Z,6.00
2022-12-06T06:03:18.970Z,5.30
2022-12-06T06:04:41.069Z,5.80
2022-12-06T06:06:03.791Z,6.10
2022-12-06T06:07:25.821Z,6.20
2022-12-06T06:08:47.817Z,6.13
2022-12-06T06:10:10.816Z,5.67
2022-12-06T06:11:32.952Z,5.40
2022-12-06T06:12:54.983Z,6.60
2022-12-06T06:14:17.110Z,5.60
2022-12-06T06:15:39.154Z,5.27
2022-12-06T06:17:01.258Z,5.20
2022-12-06T06:18:23.353Z,5.50
2022-12-06T06:19:48.763Z,6.30
2022-12-06T06:21:13.785Z,6.40
2022-12-06T06:22:37.875Z,6.07
2022-12-06T06:23:59.898Z,6.03
2022-12-06T06:25:22.018Z,5.63
2022-12-06T06:26:44.227Z,5.20
2022-12-06T06:28:06.265Z,6.03
2022-12-06T06:29:28.369Z,6.87
2022-12-06T06:30:51.049Z,5.23
2022-12-06T06:32:13.674Z,6.40
2022-12-06T06:33:36.214Z,5.10
2022-12-06T06:34:58.262Z,5.40
2022-12-06T06:36:20.373Z,6.07
2022-12-06T06:37:42.401Z,5.80
2022-12-06T06:39:04.488Z,6.10
2022-12-06T06:40:26.957Z,5.27
2022-12-06T06:41:48.957Z,5.97
2022-12-06T06:43:20.551Z,6.07
2022-12-06T06:44:42.785Z,6.07
2022-12-06T06:46:06.961Z,6.20
2022-12-06T06:47:29.110Z,6.60
2022-12-06T06:48:51.114Z,6.30
2022-12-06T06:50:13.441Z,5.77
2022-12-06T06:51:35.495Z,6.13
2022-12-06T06:52:57.661Z,6.73
2022-12-06T06:54:19.816Z,6.20
2022-12-06T06:55:44.138Z,7.40
2022-12-06T06:57:06.473Z,6.90
2022-12-06T06:58:28.903Z,5.77
2022-12-06T06:59:51.076Z,5.63
2022-12-06T07:01:22.000Z,6.27
2022-12-06T07:02:44.198Z,6.30
2022-12-06T07:04:06.343Z,5.50
2022-12-06T07:05:28.587Z,5.50
2022-12-06T07:06:50.652Z,5.90
2022-12-06T07:08:13.121Z,5.83
2022-12-06T07:09:35.233Z,4.73
2022-12-06T07:10:57.772Z,5.97
2022-12-06T07:12:19.805Z,4.80
2022-12-06T07:13:46.889Z,5.23
2022-12-06T07:15:13.254Z,5.23
2022-12-06T07:16:35.366Z,5.63
2022-12-06T07:17:57.410Z,5.10
2022-12-06T07:19:19.448Z,5.17
2022-12-06T07:20:41.472Z,5.40
2022-12-06T07:22:03.534Z,5.83
2022-12-06T07:23:25.582Z,5.13
2022-12-06T07:24:52.273Z,5.40
2022-12-06T07:26:17.654Z,5.43
2022-12-06T07:27:39.691Z,4.90
2022-12-06T07:29:02.076Z,5.43
2022-12-06T07:30:27.395Z,4.80
2022-12-06T07:31:49.779Z,5.00
2022-12-06T07:33:11.818Z,5.20
2022-12-06T07:34:33.923Z,4.90
2022-12-06T07:36:13.030Z,5.20
2022-12-06T07:37:35.842Z,4.60
2022-12-06T07:38:59.551Z,5.10
2022-12-06T07:40:41.185Z,4.73
2022-12-06T07:42:22.078Z,4.47
2022-12-06T07:44:02.942Z,4.50
2022-12-06T07:45:25.163Z,4.50
2022-12-06T07:46:48.484Z,4.60
2022-12-06T07:48:11.423Z,5.90
2022-12-06T07:49:33.602Z,5.10
2022-12-06T07:50:55.596Z,4.90
2022-12-06T07:52:17.644Z,4.93
2022-12-06T07:53:39.679Z,5.10
2022-12-06T07:55:02.778Z,4.60
2022-12-06T07:56:25.201Z,4.77
2022-12-06T07:57:47.285Z,4.03
2022-12-06T07:59:10.011Z,5.70
2022-12-06T08:00:32.121Z,5.33
2022-12-06T08:01:54.873Z,5.17
2022-12-06T08:03:17.712Z,4.60
2022-12-06T08:04:39.788Z,5.97
2022-12-06T08:06:02.004Z,4.80
2022-12-06T08:07:24.934Z,5.50
2022-12-06T08:08:47.028Z,4.47
2022-12-06T08:10:09.113Z,5.10
2022-12-06T08:11:31.140Z,5.67
2022-12-06T08:12:53.533Z,5.03
2022-12-06T08:14:15.884Z,5.47
2022-12-06T08:15:39.906Z,5.27
2022-12-06T08:17:02.610Z,5.77
2022-12-06T08:18:25.654Z,4.60
2022-12-06T08:19:47.952Z,5.20
2022-12-06T08:21:10.909Z,5.40
2022-12-06T08:22:32.984Z,5.57
2022-12-06T08:23:55.425Z,4.80
2022-12-06T08:25:17.664Z,4.60
2022-12-06T08:26:39.848Z,5.20
2022-12-06T08:28:01.881Z,5.73
2022-12-06T08:29:23.978Z,5.27
2022-12-06T08:30:46.021Z,4.90
2022-12-06T08:32:08.125Z,4.47
2022-12-06T08:33:32.715Z,5.73
2022-12-06T08:34:54.747Z,5.10
2022-12-06T08:36:19.209Z,5.60
2022-12-06T08:37:41.318Z,5.30
2022-12-06T08:39:03.558Z,5.87
2022-12-06T08:40:25.672Z,6.07
2022-12-06T08:41:58.092Z,6.03
2022-12-06T08:43:20.235Z,6.53
2022-12-06T08:44:42.305Z,5.97
2022-12-06T08:46:04.515Z,6.33
2022-12-06T08:47:26.628Z,5.93
2022-12-06T08:48:48.689Z,5.83
2022-12-06T08:50:10.915Z,5.80
2022-12-06T08:51:34.286Z,6.83
2022-12-06T08:52:56.393Z,5.90
2022-12-06T08:54:22.341Z,6.80
2022-12-06T08:56:00.388Z,6.10
2022-12-06T08:57:24.289Z,5.93
2022-12-06T08:58:46.411Z,5.40
2022-12-06T09:00:09.596Z,5.37
2022-12-06T09:01:37.720Z,5.73
2022-12-06T09:03:00.592Z,6.63
2022-12-06T09:04:23.399Z,5.70
2022-12-06T09:05:45.535Z,5.20
2022-12-06T09:07:11.656Z,5.60
2022-12-06T09:08:34.578Z,7.13
2022-12-06T09:09:56.706Z,6.20
2022-12-06T09:11:19.374Z,6.67
2022-12-06T09:12:41.491Z,6.87
2022-12-06T09:14:03.895Z,6.07
2022-12-06T09:15:25.926Z,6.27
2022-12-06T09:16:48.464Z,5.97
2022-12-06T09:18:10.549Z,5.80
2022-12-06T09:19:32.871Z,5.87
2022-12-06T09:20:55.549Z,6.80
2022-12-06T09:22:17.669Z,6.23
2022-12-06T09:23:39.954Z,5.97
2022-12-06T09:25:01.985Z,6.07
2022-12-06T09:26:24.780Z,5.93
2022-12-06T09:27:47.479Z,5.63
2022-12-06T09:29:09.798Z,6.90
2022-12-06T09:30:31.819Z,6.23
2022-12-06T09:31:54.196Z,6.87
2022-12-06T09:33:16.255Z,7.10
2022-12-06T09:34:38.350Z,6.03
2022-12-06T09:36:04.554Z,6.93
2022-12-06T09:37:26.917Z,5.90
2022-12-06T09:39:00.381Z,6.73
2022-12-06T09:40:39.837Z,6.23
2022-12-06T09:42:31.794Z,6.57
2022-12-06T09:44:23.642Z,5.57
2022-12-06T09:46:11.788Z,5.63
2022-12-06T09:47:58.003Z,5.70
2022-12-06T09:49:26.066Z,5.83
2022-12-06T09:50:53.895Z,5.70
2022-12-06T09:52:22.271Z,6.73
2022-12-06T09:54:11.121Z,6.10
2022-12-06T09:55:45.147Z,5.37
2022-12-06T09:57:31.766Z,5.37
2022-12-06T09:59:28.048Z,5.17
2022-12-06T10:01:05.476Z,5.70
2022-12-06T10:02:52.009Z,5.40
2022-12-06T10:04:51.149Z,4.83
2022-12-06T10:06:17.060Z,4.60
2022-12-06T10:07:48.165Z,5.27
2022-12-06T10:09:30.278Z,5.33
2022-12-06T10:10:56.347Z,5.00
2022-12-06T10:12:27.483Z,5.27
2022-12-06T10:14:00.209Z,5.10
2022-12-06T10:15:52.330Z,5.90
2022-12-06T10:17:42.220Z,5.00
2022-12-06T10:19:19.305Z,4.70
2022-12-06T10:21:05.874Z,4.87
2022-12-06T10:22:58.115Z,4.93
2022-12-06T10:24:23.231Z,4.53
2022-12-06T10:25:57.522Z,4.40
2022-12-06T10:27:36.900Z,3.70
2022-12-06T10:29:09.885Z,4.60
2022-12-06T10:30:34.789Z,4.30
2022-12-06T10:31:59.826Z,4.53
2022-12-06T10:33:55.471Z,4.63
2022-12-06T10:35:18.195Z,4.57
2022-12-06T10:36:58.959Z,5.03
2022-12-06T10:38:26.634Z,4.77
2022-12-06T10:40:00.648Z,4.60
2022-12-06T10:41:32.863Z,4.47
2022-12-06T10:43:09.254Z,4.73
2022-12-06T10:44:57.812Z,5.30
2022-12-06T10:47:03.180Z,4.70
2022-12-06T10:48:54.058Z,4.93
2022-12-06T10:50:28.510Z,5.20
2022-12-06T10:52:03.324Z,5.40
2022-12-06T10:53:31.781Z,5.57
2022-12-06T10:55:08.683Z,5.60
2022-12-06T10:56:38.142Z,5.27
2022-12-06T10:58:31.301Z,5.23
2022-12-06T11:00:15.889Z,5.30
2022-12-06T11:01:41.745Z,5.00
2022-12-06T11:03:12.859Z,6.50
2022-12-06T11:04:37.599Z,6.03
2022-12-06T11:06:22.248Z,5.43
2022-12-06T11:07:47.558Z,4.87
2022-12-06T11:09:34.300Z,6.10
2022-12-06T11:10:58.434Z,3.90
2022-12-06T11:12:33.981Z,5.90
2022-12-06T11:15:30.974Z,6.37
2022-12-06T11:17:25.140Z,4.73
2022-12-06T11:18:48.476Z,4.87
2022-12-06T11:20:35.258Z,8.00
2022-12-06T11:22:12.686Z,8.03
2022-12-06T11:24:03.266Z,10.53
2022-12-06T11:25:41.387Z,6.60
2022-12-06T11:27:31.952Z,4.80
2022-12-06T11:29:09.990Z,2.90
2022-12-06T11:30:33.578Z,2.47
2022-12-06T11:32:02.683Z,2.73
2022-12-06T11:33:32.594Z,2.70
2022-12-06T11:35:00.529Z,2.33
2022-12-06T11:36:24.690Z,2.20
2022-12-06T11:37:47.670Z,2.50
2022-12-06T11:39:14.709Z,1.87
2022-12-06T11:40:48.227Z,2.00
2022-12-06T11:42:14.578Z,1.30
2022-12-06T11:43:37.704Z,2.00
2022-12-06T11:45:14.230Z,1.90
2022-12-06T11:46:36.350Z,2.03
2022-12-06T11:48:01.897Z,1.93
2022-12-06T11:49:36.725Z,2.27
2022-12-06T11:50:58.956Z,1.93
2022-12-06T11:52:30.314Z,1.90
2022-12-06T11:54:03.683Z,2.60
2022-12-06T11:55:36.758Z,2.50
2022-12-06T11:57:03.256Z,3.00
2022-12-06T11:58:58.078Z,2.33
2022-12-06T12:00:27.352Z,1.50
2022-12-06T12:01:51.359Z,2.00
2022-12-06T12:03:28.452Z,1.70
2022-12-06T12:04:50.598Z,1.80
2022-12-06T12:06:23.278Z,2.60
2022-12-06T12:07:53.587Z,2.10
2022-12-06T12:09:20.017Z,2.07
2022-12-06T12:10:44.834Z,1.63
2022-12-06T12:12:16.441Z,1.70
2022-12-06T12:13:49.881Z,1.77
2022-12-06T12:15:18.494Z,1.63
2022-12-06T12:16:48.397Z,1.83
2022-12-06T12:18:25.173Z,1.90
2022-12-06T12:19:52.434Z,1.77
2022-12-06T12:21:14.688Z,1.70
2022-12-06T12:22:41.249Z,1.63
2022-12-06T12:24:04.631Z,1.77
2022-12-06T12:25:30.998Z,1.77
2022-12-06T12:26:53.052Z,1.50
2022-12-06T12:28:33.379Z,2.03
2022-12-06T12:30:17.105Z,1.80
2022-12-06T12:31:58.797Z,1.80
2022-12-06T12:33:23.257Z,1.70
2022-12-06T12:34:45.324Z,1.73
2022-12-06T12:36:07.298Z,1.87
2022-12-06T12:37:29.486Z,1.90
2022-12-06T12:39:00.814Z,1.87
2022-12-06T12:40:29.068Z,1.43
2022-12-06T12:41:54.258Z,1.90
2022-12-06T12:43:29.535Z,2.33
2022-12-06T12:44:58.746Z,1.80
2022-12-06T12:46:22.311Z,2.03
2022-12-06T12:48:20.571Z,1.80
2022-12-06T12:49:43.040Z,2.63
2022-12-06T12:51:18.915Z,2.13
2022-12-06T12:52:42.449Z,2.23
2022-12-06T12:54:18.275Z,1.80
2022-12-06T12:55:41.823Z,1.90
2022-12-06T12:57:12.562Z,2.17
2022-12-06T12:58:36.369Z,2.00
2022-12-06T12:59:58.600Z,2.10
2022-12-06T13:01:38.470Z,2.03
2022-12-06T13:03:28.518Z,2.30
2022-12-06T13:05:31.299Z,3.10
2022-12-06T13:06:47.290Z,2.20
2022-12-06T13:08:31.575Z,3.30
2022-12-06T13:10:05.218Z,2.80
2022-12-06T13:11:28.458Z,3.40
2022-12-06T13:12:55.444Z,3.90
2022-12-06T13:14:21.040Z,4.43
2022-12-06T13:15:50.186Z,3.57
2022-12-06T13:17:13.899Z,3.07
2022-12-06T13:18:45.190Z,3.07
2022-12-06T13:20:25.102Z,3.13
2022-12-06T13:21:49.142Z,3.40
2022-12-06T13:23:18.894Z,3.10
2022-12-06T13:24:44.959Z,2.60
2022-12-06T13:26:25.721Z,3.07
2022-12-06T13:27:52.352Z,2.67
2022-12-06T13:29:38.751Z,2.93
2022-12-06T13:31:08.174Z,2.20
2022-12-06T13:32:39.640Z,3.20
2022-12-06T13:34:11.782Z,2.63
2022-12-06T13:35:58.446Z,3.30
2022-12-06T13:37:29.522Z,3.40
2022-12-06T13:38:51.653Z,3.17
2022-12-06T13:40:34.746Z,3.50
2022-12-06T13:42:19.811Z,3.90
2022-12-06T13:43:49.687Z,4.40
2022-12-06T13:45:45.511Z,3.90
2022-12-06T13:47:29.059Z,3.90
2022-12-06T13:49:02.643Z,3.73
2022-12-06T13:50:24.680Z,3.57
2022-12-06T13:51:47.912Z,3.63
2022-12-06T13:53:09.933Z,3.70
2022-12-06T13:54:32.779Z,3.77
2022-12-06T13:56:02.426Z,3.10
2022-12-06T13:57:30.156Z,3.27
2022-12-06T13:58:53.957Z,3.50
2022-12-06T14:00:30.977Z,3.50
2022-12-06T14:02:00.933Z,3.20
2022-12-06T14:03:26.122Z,4.13
2022-12-06T14:04:48.219Z,4.07
2022-12-06T14:06:15.866Z,3.57
2022-12-06T14:07:38.290Z,5.00
2022-12-06T14:09:00.446Z,5.53
2022-12-06T14:10:22.668Z,4.13
2022-12-06T14:11:45.219Z,2.73
2022-12-06T14:13:07.421Z,3.70
2022-12-06T14:14:29.663Z,3.50
2022-12-06T14:15:52.488Z,2.90
2022-12-06T14:17:38.094Z,3.70
2022-12-06T14:18:59.439Z,3.10
2022-12-06T14:20:27.632Z,3.60
2022-12-06T14:21:55.750Z,3.50
2022-12-06T14:23:30.649Z,3.30
2022-12-06T14:25:17.757Z,3.70
2022-12-06T14:26:39.849Z,3.13
2022-12-06T14:28:06.057Z,3.80
2022-12-06T14:29:28.244Z,3.33
2022-12-06T14:30:51.122Z,3.27
2022-12-06T14:32:17.314Z,3.10
2022-12-06T14:33:39.445Z,3.30
2022-12-06T14:35:03.713Z,3.17
2022-12-06T14:36:27.823Z,3.30
2022-12-06T14:37:54.213Z,3.00
2022-12-06T14:39:19.777Z,3.47
2022-12-06T14:41:02.127Z,3.30
2022-12-06T14:42:42.971Z,3.30
2022-12-06T14:44:16.266Z,3.33
2022-12-06T14:45:38.758Z,2.23
2022-12-06T14:47:01.553Z,3.27
2022-12-06T14:48:24.565Z,3.30
2022-12-06T14:50:14.371Z,2.90
2022-12-06T14:51:40.850Z,2.30
2022-12-06T14:53:27.543Z,3.60
2022-12-06T14:54:51.785Z,3.27
2022-12-06T14:56:44.467Z,4.57
2022-12-06T14:58:18.049Z,2.70
2022-12-06T15:00:13.398Z,2.70
2022-12-06T15:01:28.482Z,3.07
2022-12-06T15:03:01.748Z,3.17
2022-12-06T15:04:35.433Z,2.30
2022-12-06T15:06:21.256Z,3.03
2022-12-06T15:07:43.571Z,2.50
2022-12-06T15:09:13.458Z,2.50
2022-12-06T15:10:35.571Z,2.10
2022-12-06T15:12:57.886Z,1.93
2022-12-06T15:14:29.224Z,2.50
2022-12-06T15:16:09.411Z,2.33
2022-12-06T15:17:31.705Z,2.27
2022-12-06T15:19:00.107Z,2.53
2022-12-06T15:20:22.347Z,2.37
2022-12-06T15:21:44.369Z,2.67
2022-12-06T15:23:27.973Z,2.20
2022-12-06T15:24:51.757Z,2.03
2022-12-06T15:26:13.994Z,1.70
2022-12-06T15:27:36.124Z,2.27
2022-12-06T15:28:58.153Z,2.67
2022-12-06T15:30:20.284Z,2.93
2022-12-06T15:31:46.003Z,2.60
2022-12-06T15:33:27.222Z,2.90
2022-12-06T15:34:49.280Z,2.80
2022-12-06T15:36:19.646Z,2.00
2022-12-06T15:37:45.065Z,1.87
2022-12-06T15:39:12.381Z,1.90
2022-12-06T15:40:35.810Z,2.07
2022-12-06T15:41:57.927Z,1.90
2022-12-06T15:43:32.191Z,1.77
2022-12-06T15:44:55.344Z,2.20
2022-12-06T15:46:27.177Z,2.40
2022-12-06T15:47:51.627Z,2.30
2022-12-06T15:49:18.083Z,2.50
2022-12-06T15:50:40.173Z,2.20
2022-12-06T15:52:02.194Z,2.43
2022-12-06T15:53:25.593Z,2.20
2022-12-06T15:54:47.695Z,2.20
2022-12-06T15:56:16.694Z,1.50
2022-12-06T15:57:38.742Z,1.60
2022-12-06T15:59:00.729Z,1.77
2022-12-06T16:00:22.866Z,1.33
2022-12-06T16:01:49.528Z,1.40
2022-12-06T16:03:11.938Z,1.57
2022-12-06T16:04:35.022Z,1.20
2022-12-06T16:05:57.161Z,1.43
2022-12-06T16:07:19.574Z,1.60
2022-12-06T16:08:42.818Z,1.80
2022-12-06T16:10:05.462Z,2.10
2022-12-06T16:11:27.535Z,2.03
2022-12-06T16:13:08.028Z,1.97
2022-12-06T16:14:30.136Z,1.50
2022-12-06T16:15:52.755Z,1.67
2022-12-06T16:17:14.906Z,1.50
2022-12-06T16:18:37.035Z,1.50
2022-12-06T16:20:17.682Z,1.77
2022-12-06T16:21:57.538Z,1.50
2022-12-06T16:24:11.935Z,1.70
2022-12-06T16:25:23.452Z,2.13
2022-12-06T16:26:46.296Z,2.10
2022-12-06T16:28:08.600Z,2.23
2022-12-06T16:29:30.606Z,2.73
2022-12-06T16:30:52.928Z,6.70
2022-12-06T16:32:14.989Z,5.10
2022-12-06T16:33:37.177Z,2.70
2022-12-06T16:34:59.630Z,2.40
2022-12-06T16:36:26.034Z,1.73
2022-12-06T16:37:48.059Z,1.87
2022-12-06T16:39:10.499Z,1.73
2022-12-06T16:40:33.945Z,1.57
2022-12-06T16:41:56.075Z,1.60
2022-12-06T16:43:18.140Z,1.47
2022-12-06T16:44:51.031Z,1.97
2022-12-06T16:46:41.895Z,2.23
2022-12-06T16:48:05.919Z,1.93
2022-12-06T16:49:45.759Z,2.00
2022-12-06T16:51:08.737Z,2.13
2022-12-06T16:52:30.746Z,2.20
2022-12-06T16:53:53.382Z,2.67
2022-12-06T16:55:15.467Z,2.80
2022-12-06T16:56:41.532Z,3.30
2022-12-06T16:58:04.459Z,4.87
2022-12-06T16:59:26.542Z,8.37
2022-12-06T17:00:48.688Z,6.00
2022-12-06T17:02:24.404Z,5.50
2022-12-06T17:03:50.244Z,5.00
2022-12-06T17:05:21.674Z,5.43
2022-12-06T17:06:44.067Z,5.10
2022-12-06T17:08:06.179Z,5.23
2022-12-06T17:09:28.388Z,4.50
2022-12-06T17:11:10.468Z,5.10
2022-12-06T17:12:32.854Z,5.97
2022-12-06T17:13:54.898Z,5.53
2022-12-06T17:15:21.397Z,4.83
2022-12-06T17:16:45.053Z,3.90
2022-12-06T17:18:07.312Z,3.63
2022-12-06T17:19:31.143Z,4.03
2022-12-06T17:20:53.253Z,4.13
2022-12-06T17:22:19.198Z,4.03
2022-12-06T17:23:41.431Z,4.20
2022-12-06T17:25:05.064Z,4.30
2022-12-06T17:26:28.424Z,3.77
2022-12-06T17:27:51.443Z,4.30
2022-12-06T17:29:13.698Z,4.00
2022-12-06T17:30:35.823Z,3.47
2022-12-06T17:31:58.105Z,4.23
2022-12-06T17:33:20.286Z,4.17
2022-12-06T17:34:42.438Z,4.30
2022-12-06T17:36:06.671Z,5.20
2022-12-06T17:37:28.863Z,3.97
2022-12-06T17:38:50.987Z,4.60
2022-12-06T17:40:13.611Z,5.00
2022-12-06T17:41:54.923Z,4.63
2022-12-06T17:43:16.921Z,4.40
2022-12-06T17:44:39.949Z,4.57
2022-12-06T17:46:08.113Z,3.80
2022-12-06T17:47:30.186Z,3.80
2022-12-06T17:48:52.215Z,3.90
2022-12-06T17:50:14.681Z,4.07
2022-12-06T17:51:37.091Z,4.10
2022-12-06T17:52:59.190Z,3.90
2022-12-06T17:54:22.636Z,4.27
2022-12-06T17:55:44.658Z,4.53
2022-12-06T17:57:06.832Z,6.00
2022-12-06T17:58:28.855Z,5.30
2022-12-06T17:59:51.012Z,4.97
2022-12-06T18:01:13.200Z,4.90
2022-12-06T18:02:35.440Z,5.00
2022-12-06T18:03:59.834Z,4.10
2022-12-06T18:05:21.884Z,4.00
2022-12-06T18:06:44.714Z,4.13
2022-12-06T18:08:06.839Z,3.67
2022-12-06T18:09:28.966Z,2.87
2022-12-06T18:11:00.184Z,3.07
2022-12-06T18:12:22.232Z,2.50
2022-12-06T18:13:45.498Z,2.53
2022-12-06T18:15:28.057Z,2.50
2022-12-06T18:16:50.256Z,2.00
2022-12-06T18:18:12.637Z,2.00
2022-12-06T18:19:34.833Z,2.40
2022-12-06T18:20:57.562Z,2.50
2022-12-06T18:22:20.309Z,2.63
2022-12-06T18:24:05.442Z,2.63
2022-12-06T18:25:24.771Z,2.33
2022-12-06T18:26:47.491Z,2.87
2022-12-06T18:28:09.936Z,3.10
2022-12-06T18:29:32.424Z,3.23
2022-12-06T18:30:54.501Z,2.97
2022-12-06T18:32:16.606Z,3.67
2022-12-06T18:33:39.785Z,3.57
2022-12-06T18:35:02.298Z,4.40
2022-12-06T18:36:25.158Z,3.67
2022-12-06T18:37:47.170Z,4.30
2022-12-06T18:39:14.935Z,3.93
2022-12-06T18:40:38.236Z,3.20
2022-12-06T18:42:00.935Z,3.80
2022-12-06T18:43:22.955Z,3.70
2022-12-06T18:44:46.270Z,3.43
2022-12-06T18:46:13.833Z,3.87
2022-12-06T18:47:37.029Z,3.00
2022-12-06T18:49:00.124Z,3.07
2022-12-06T18:50:22.255Z,3.23
2022-12-06T18:51:44.323Z,3.00
2022-12-06T18:53:06.626Z,3.67
2022-12-06T18:54:28.741Z,2.47
2022-12-06T18:55:50.938Z,2.43
2022-12-06T18:57:13.051Z,2.10
2022-12-06T18:58:35.150Z,2.17
2022-12-06T18:59:57.251Z,1.80
2022-12-06T19:01:22.350Z,2.07
2022-12-06T19:02:44.495Z,2.60
2022-12-06T19:04:09.382Z,2.00
2022-12-06T19:06:00.665Z,2.60
2022-12-06T19:07:13.511Z,2.73
2022-12-06T19:08:37.714Z,2.00
2022-12-06T19:10:00.273Z,2.50
2022-12-06T19:11:23.820Z,2.10
2022-12-06T19:12:47.170Z,2.70
2022-12-06T19:14:10.061Z,2.77
2022-12-06T19:15:32.232Z,2.53
2022-12-06T19:16:54.424Z,2.77
2022-12-06T19:18:16.636Z,2.80
2022-12-06T19:19:40.041Z,2.67
2022-12-06T19:21:02.231Z,2.67